createdAt,value
2022-12-27T00:00:14.946Z,1022.32
2022-12-27T00:00:43.512Z,1022.48
2022-12-27T00:01:14.337Z,1022.48
2022-12-27T00:01:45.787Z,1022.32
2022-12-27T00:02:16.688Z,1022.38
2022-12-27T00:02:49.032Z,1022.38
2022-12-27T00:03:19.924Z,1022.32
2022-12-27T00:03:50.739Z,1022.32
2022-12-27T00:04:20.536Z,1022.59
2022-12-27T00:04:51.087Z,1022.59
2022-12-27T00:05:23.050Z,1022.48
2022-12-27T00:06:11.282Z,1022.48
2022-12-27T00:06:24.072Z,1022.48
2022-12-27T00:06:56.510Z,1022.48
2022-12-27T00:07:26.225Z,1022.32
2022-12-27T00:07:58.689Z,1022.32
2022-12-27T00:08:30.663Z,1022.11
2022-12-27T00:09:00.465Z,1022.11
2022-12-27T00:09:31.112Z,1022.38
2022-12-27T00:10:02.451Z,1022.38
2022-12-27T00:10:34.694Z,1022.59
2022-12-27T00:11:03.751Z,1022.59
2022-12-27T00:11:34.292Z,1022.48
2022-12-27T00:12:05.645Z,1022.48
2022-12-27T00:12:36.657Z,1022.48
2022-12-27T00:13:07.064Z,1022.48
2022-12-27T00:13:55.911Z,1022.59
2022-12-27T00:14:10.645Z,1022.59
2022-12-27T00:14:41.564Z,1022.48
2022-12-27T00:15:12.165Z,1022.48
2022-12-27T00:15:42.849Z,1022.48
2022-12-27T00:16:14.044Z,1022.48
2022-12-27T00:16:44.873Z,1022.48
2022-12-27T00:17:46.345Z,1022.59
2022-12-27T00:18:17.365Z,1022.79
2022-12-27T00:18:49.729Z,1022.79
2022-12-27T00:19:20.905Z,1022.69
2022-12-27T00:19:50.829Z,1022.69
2022-12-27T00:20:22.029Z,1022.69
2022-12-27T00:20:52.555Z,1022.69
2022-12-27T00:21:23.348Z,1022.69
2022-12-27T00:21:54.278Z,1022.69
2022-12-27T00:22:25.353Z,1022.59
2022-12-27T00:22:56.512Z,1022.59
2022-12-27T00:24:00.519Z,1022.69
2022-12-27T00:24:31.325Z,1022.89
2022-12-27T00:25:01.785Z,1022.89
2022-12-27T00:25:32.079Z,1022.79
2022-12-27T00:26:02.732Z,1022.79
2022-12-27T00:26:33.627Z,1022.69
2022-12-27T00:27:04.636Z,1022.69
2022-12-27T00:27:35.956Z,1022.79
2022-12-27T00:28:24.062Z,1022.59
2022-12-27T00:28:37.545Z,1022.59
2022-12-27T00:29:11.046Z,1022.59
2022-12-27T00:29:41.307Z,1022.59
2022-12-27T00:30:13.310Z,1022.59
2022-12-27T00:30:42.833Z,1022.79
2022-12-27T00:31:13.496Z,1022.79
2022-12-27T00:31:45.972Z,1022.79
2022-12-27T00:32:15.196Z,1022.79
2022-12-27T00:32:46.031Z,1022.69
2022-12-27T00:33:16.762Z,1022.99
2022-12-27T00:33:47.783Z,1022.99
2022-12-27T00:34:20.828Z,1022.69
2022-12-27T00:35:07.205Z,1022.69
2022-12-27T00:35:21.469Z,1022.89
2022-12-27T00:36:22.813Z,1022.59
2022-12-27T00:37:11.342Z,1022.59
2022-12-27T00:37:43.175Z,1022.79
2022-12-27T00:37:56.282Z,1022.79
2022-12-27T00:38:27.577Z,1022.79
2022-12-27T00:38:57.544Z,1022.79
2022-12-27T00:39:30.602Z,1022.89
2022-12-27T00:40:01.886Z,1022.89
2022-12-27T00:40:32.517Z,1022.69
2022-12-27T00:41:01.776Z,1022.69
2022-12-27T00:41:32.493Z,1022.79
2022-12-27T00:42:04.500Z,1022.79
2022-12-27T00:42:53.470Z,1022.79
2022-12-27T00:43:05.927Z,1022.79
2022-12-27T00:43:36.462Z,1022.79
2022-12-27T00:44:08.005Z,1022.79
2022-12-27T00:44:38.779Z,1022.99
2022-12-27T00:45:12.162Z,1022.99
2022-12-27T00:45:41.638Z,1022.99
2022-12-27T00:46:12.564Z,1022.99
2022-12-27T00:46:51.853Z,1022.89
2022-12-27T00:47:14.057Z,1022.89
2022-12-27T00:47:44.297Z,1022.89
2022-12-27T00:48:15.995Z,1022.79
2022-12-27T00:48:46.511Z,1022.79
2022-12-27T00:49:17.845Z,1022.99
2022-12-27T00:49:50.033Z,1022.99
2022-12-27T00:50:22.137Z,1022.89
2022-12-27T00:50:53.138Z,1022.89
2022-12-27T00:51:24.772Z,1022.79
2022-12-27T00:51:53.945Z,1022.79
2022-12-27T00:52:23.839Z,1022.99
2022-12-27T00:52:54.427Z,1022.99
2022-12-27T00:53:25.553Z,1023.09
2022-12-27T00:53:57.066Z,1023.09
2022-12-27T00:54:27.420Z,1023.20
2022-12-27T00:54:59.203Z,1023.20
2022-12-27T00:55:31.910Z,1022.89
2022-12-27T00:56:17.822Z,1022.99
2022-12-27T00:56:31.935Z,1022.99
2022-12-27T00:57:04.785Z,1022.99
2022-12-27T00:57:35.240Z,1022.99
2022-12-27T00:58:40.474Z,1023.09
2022-12-27T00:59:06.679Z,1023.09
2022-12-27T00:59:37.768Z,1023.09
2022-12-27T01:00:10.502Z,1023.09
2022-12-27T01:00:41.494Z,1023.09
2022-12-27T01:01:11.766Z,1023.09
2022-12-27T01:01:42.820Z,1023.09
2022-12-27T01:02:16.270Z,1023.09
2022-12-27T01:02:44.350Z,1023.20
2022-12-27T01:03:14.433Z,1023.20
2022-12-27T01:03:46.046Z,1023.20
2022-12-27T01:04:16.856Z,1022.89
2022-12-27T01:04:47.813Z,1022.89
2022-12-27T01:05:19.650Z,1023.30
2022-12-27T01:05:51.843Z,1023.30
2022-12-27T01:06:22.800Z,1023.09
2022-12-27T01:06:52.544Z,1023.09
2022-12-27T01:07:23.453Z,1023.40
2022-12-27T01:07:54.193Z,1023.40
2022-12-27T01:08:24.894Z,1023.30
2022-12-27T01:10:41.196Z,1023.20
2022-12-27T01:11:26.626Z,1023.20
2022-12-27T01:11:31.386Z,1023.09
2022-12-27T01:12:05.089Z,1023.09
2022-12-27T01:12:34.106Z,1023.30
2022-12-27T01:13:06.528Z,1023.30
2022-12-27T01:13:37.664Z,1023.30
2022-12-27T01:14:09.669Z,1023.30
2022-12-27T01:14:45.456Z,1023.30
2022-12-27T01:15:08.820Z,1023.30
2022-12-27T01:15:39.256Z,1023.30
2022-12-27T01:16:09.872Z,1023.30
2022-12-27T01:16:41.277Z,1023.30
2022-12-27T01:17:12.089Z,1023.30
2022-12-27T01:17:42.943Z,1023.40
2022-12-27T01:18:16.136Z,1023.40
2022-12-27T01:18:47.329Z,1023.40
2022-12-27T01:19:17.212Z,1023.30
2022-12-27T01:19:47.814Z,1023.30
2022-12-27T01:20:18.760Z,1023.30
2022-12-27T01:20:49.170Z,1023.30
2022-12-27T01:21:21.069Z,1023.30
2022-12-27T01:21:51.027Z,1023.30
2022-12-27T01:22:22.828Z,1023.50
2022-12-27T01:22:53.279Z,1023.50
2022-12-27T01:23:24.810Z,1023.50
2022-12-27T01:23:56.975Z,1023.50
2022-12-27T01:24:28.094Z,1023.60
2022-12-27T01:24:58.074Z,1023.60
2022-12-27T01:25:28.249Z,1023.40
2022-12-27T01:25:59.598Z,1023.40
2022-12-27T01:26:30.341Z,1023.30
2022-12-27T01:27:01.411Z,1023.30
2022-12-27T01:27:32.140Z,1023.40
2022-12-27T01:28:03.140Z,1023.40
2022-12-27T01:28:33.788Z,1023.30
2022-12-27T01:29:07.608Z,1023.30
2022-12-27T01:29:37.047Z,1023.40
2022-12-27T01:30:09.103Z,1023.40
2022-12-27T01:30:38.947Z,1023.60
2022-12-27T01:31:30.687Z,1023.30
2022-12-27T01:31:40.254Z,1023.30
2022-12-27T01:32:10.924Z,1023.30
2022-12-27T01:32:45.510Z,1023.50
2022-12-27T01:33:25.841Z,1023.50
2022-12-27T01:33:46.742Z,1023.60
2022-12-27T01:34:40.872Z,1023.50
2022-12-27T01:35:20.725Z,1023.60
2022-12-27T01:35:48.715Z,1023.60
2022-12-27T01:37:49.819Z,1023.50
2022-12-27T01:38:23.145Z,1023.50
2022-12-27T01:38:56.093Z,1023.50
2022-12-27T01:39:27.406Z,1023.40
2022-12-27T01:39:57.846Z,1023.40
2022-12-27T01:40:29.297Z,1023.40
2022-12-27T01:40:59.250Z,1023.40
2022-12-27T01:41:30.312Z,1023.50
2022-12-27T01:42:00.303Z,1023.50
2022-12-27T01:42:32.311Z,1023.70
2022-12-27T01:43:02.369Z,1023.70
2022-12-27T01:43:32.975Z,1023.81
2022-12-27T01:44:04.661Z,1023.81
2022-12-27T01:44:37.615Z,1023.60
2022-12-27T01:45:24.173Z,1023.60
2022-12-27T01:45:38.400Z,1023.81
2022-12-27T01:46:08.589Z,1023.81
2022-12-27T01:46:39.987Z,1023.70
2022-12-27T01:47:10.722Z,1023.70
2022-12-27T01:47:41.758Z,1023.70
2022-12-27T01:48:12.390Z,1023.70
2022-12-27T01:48:43.322Z,1023.81
2022-12-27T01:49:15.003Z,1023.81
2022-12-27T01:49:47.513Z,1023.70
2022-12-27T01:50:18.946Z,1023.70
2022-12-27T01:50:48.756Z,1023.70
2022-12-27T01:51:19.046Z,1023.70
2022-12-27T01:51:49.666Z,1023.70
2022-12-27T01:52:20.796Z,1023.60
2022-12-27T01:52:51.956Z,1023.60
2022-12-27T01:53:23.227Z,1023.81
2022-12-27T01:53:53.409Z,1023.81
2022-12-27T01:54:25.345Z,1023.70
2022-12-27T01:54:57.847Z,1023.70
2022-12-27T01:55:28.363Z,1023.70
2022-12-27T01:55:58.562Z,1023.70
2022-12-27T01:56:28.784Z,1023.81
2022-12-27T01:57:00.035Z,1023.81
2022-12-27T01:57:48.586Z,1023.81
2022-12-27T01:58:01.810Z,1023.81
2022-12-27T01:58:32.293Z,1023.91
2022-12-27T01:59:03.335Z,1023.91
2022-12-27T01:59:35.220Z,1023.91
2022-12-27T02:00:06.340Z,1023.91
2022-12-27T02:00:40.868Z,1024.01
2022-12-27T02:01:28.744Z,1023.70
2022-12-27T02:01:58.859Z,1023.70
2022-12-27T02:02:10.028Z,1023.70
2022-12-27T02:02:41.429Z,1023.91
2022-12-27T02:03:12.171Z,1023.91
2022-12-27T02:03:42.702Z,1024.01
2022-12-27T02:04:13.302Z,1024.01
2022-12-27T02:04:48.168Z,1024.01
2022-12-27T02:05:17.241Z,1024.21
2022-12-27T02:05:50.085Z,1024.21
2022-12-27T02:06:19.433Z,1024.01
2022-12-27T02:06:49.700Z,1024.01
2022-12-27T02:07:20.418Z,1023.91
2022-12-27T02:07:52.030Z,1023.91
2022-12-27T02:08:39.375Z,1024.01
2022-12-27T02:08:52.301Z,1024.01
2022-12-27T02:09:23.525Z,1024.11
2022-12-27T02:10:12.595Z,1024.11
2022-12-27T02:10:25.489Z,1024.11
2022-12-27T02:10:57.365Z,1024.11
2022-12-27T02:11:29.703Z,1023.91
2022-12-27T02:11:59.824Z,1023.91
2022-12-27T02:12:30.812Z,1024.01
2022-12-27T02:13:01.732Z,1024.01
2022-12-27T02:13:31.465Z,1024.01
2022-12-27T02:14:03.072Z,1024.01
2022-12-27T02:14:33.241Z,1024.01
2022-12-27T02:15:22.034Z,1024.01
2022-12-27T02:15:52.905Z,1024.01
2022-12-27T02:16:07.292Z,1024.01
2022-12-27T02:16:40.222Z,1024.01
2022-12-27T02:17:09.770Z,1024.01
2022-12-27T02:17:39.157Z,1023.70
2022-12-27T02:18:10.899Z,1023.70
2022-12-27T02:18:41.955Z,1024.11
2022-12-27T02:19:30.539Z,1023.81
2022-12-27T02:19:43.337Z,1023.81
2022-12-27T02:20:15.297Z,1023.81
2022-12-27T02:20:44.976Z,1023.70
2022-12-27T02:21:18.431Z,1024.01
2022-12-27T02:21:48.758Z,1024.01
2022-12-27T02:22:19.722Z,1023.91
2022-12-27T02:22:49.738Z,1023.91
2022-12-27T02:23:20.721Z,1024.01
2022-12-27T02:23:51.240Z,1024.01
2022-12-27T02:24:22.987Z,1023.91
2022-12-27T02:24:53.573Z,1023.91
2022-12-27T02:25:24.593Z,1023.91
2022-12-27T02:25:55.352Z,1023.91
2022-12-27T02:26:26.510Z,1023.81
2022-12-27T02:26:59.561Z,1023.81
2022-12-27T02:27:30.341Z,1024.01
2022-12-27T02:28:19.036Z,1024.01
2022-12-27T02:28:30.959Z,1024.01
2022-12-27T02:29:01.826Z,1024.01
2022-12-27T02:29:32.558Z,1023.70
2022-12-27T02:30:04.740Z,1023.70
2022-12-27T02:30:34.824Z,1024.01
2022-12-27T02:31:05.422Z,1024.01
2022-12-27T02:31:36.575Z,1023.81
2022-12-27T02:32:09.612Z,1023.81
2022-12-27T02:32:40.317Z,1023.91
2022-12-27T02:33:10.361Z,1023.91
2022-12-27T02:33:41.523Z,1023.91
2022-12-27T02:34:11.822Z,1023.91
2022-12-27T02:34:42.706Z,1023.91
2022-12-27T02:35:14.147Z,1023.91
2022-12-27T02:35:44.254Z,1023.81
2022-12-27T02:36:15.333Z,1023.91
2022-12-27T02:36:47.973Z,1023.91
2022-12-27T02:37:19.292Z,1023.91
2022-12-27T02:37:50.854Z,1023.91
2022-12-27T02:38:20.777Z,1023.91
2022-12-27T02:38:50.384Z,1023.91
2022-12-27T02:39:21.836Z,1023.81
2022-12-27T02:39:53.230Z,1023.81
2022-12-27T02:40:24.414Z,1024.11
2022-12-27T02:40:54.523Z,1024.11
2022-12-27T02:41:25.511Z,1023.91
2022-12-27T02:41:56.521Z,1023.91
2022-12-27T02:42:29.609Z,1023.81
2022-12-27T02:43:00.511Z,1023.81
2022-12-27T02:43:30.631Z,1023.91
2022-12-27T02:44:00.998Z,1023.91
2022-12-27T02:44:32.417Z,1024.01
2022-12-27T02:45:03.540Z,1024.01
2022-12-27T02:45:34.444Z,1023.81
2022-12-27T02:46:22.301Z,1024.01
2022-12-27T02:46:35.299Z,1024.01
2022-12-27T02:47:39.551Z,1023.91
2022-12-27T02:48:11.242Z,1023.91
2022-12-27T02:48:41.040Z,1023.81
2022-12-27T02:49:10.822Z,1023.81
2022-12-27T02:49:42.726Z,1023.81
2022-12-27T02:50:12.888Z,1023.81
2022-12-27T02:50:43.831Z,1023.81
2022-12-27T02:51:14.745Z,1023.81
2022-12-27T02:51:45.998Z,1023.91
2022-12-27T02:52:19.501Z,1023.70
2022-12-27T02:52:50.146Z,1023.70
2022-12-27T02:53:21.116Z,1023.81
2022-12-27T02:53:52.227Z,1023.81
2022-12-27T02:54:21.255Z,1023.91
2022-12-27T02:54:52.111Z,1023.91
2022-12-27T02:55:23.920Z,1023.91
2022-12-27T02:55:53.595Z,1023.91
2022-12-27T02:56:25.269Z,1023.60
2022-12-27T02:56:55.791Z,1023.60
2022-12-27T02:57:26.357Z,1023.81
2022-12-27T02:57:58.599Z,1023.81
2022-12-27T02:58:30.878Z,1023.81
2022-12-27T02:59:01.220Z,1023.81
2022-12-27T02:59:31.797Z,1023.81
2022-12-27T03:00:02.575Z,1023.81
2022-12-27T03:00:34.931Z,1024.01
2022-12-27T03:01:04.004Z,1024.01
2022-12-27T03:01:34.639Z,1023.91
2022-12-27T03:02:05.826Z,1023.91
2022-12-27T03:02:37.465Z,1023.91
2022-12-27T03:03:08.478Z,1023.91
2022-12-27T03:03:44.386Z,1024.01
2022-12-27T03:04:11.515Z,1024.01
2022-12-27T03:04:43.026Z,1023.81
2022-12-27T03:05:13.403Z,1023.81
2022-12-27T03:05:43.501Z,1023.70
2022-12-27T03:06:13.631Z,1023.70
2022-12-27T03:06:45.557Z,1023.91
2022-12-27T03:07:15.611Z,1023.70
2022-12-27T03:07:47.515Z,1023.70
2022-12-27T03:08:21.697Z,1023.91
2022-12-27T03:08:50.663Z,1023.91
2022-12-27T03:09:21.939Z,1024.01
2022-12-27T03:09:51.604Z,1024.01
2022-12-27T03:10:22.772Z,1024.01
2022-12-27T03:10:53.552Z,1024.01
2022-12-27T03:11:23.809Z,1023.91
2022-12-27T03:11:54.176Z,1023.91
2022-12-27T03:12:25.978Z,1024.01
2022-12-27T03:12:57.229Z,1024.01
2022-12-27T03:13:27.733Z,1023.91
2022-12-27T03:14:01.132Z,1023.91
2022-12-27T03:14:31.661Z,1024.01
2022-12-27T03:15:03.020Z,1024.01
2022-12-27T03:15:33.550Z,1023.91
2022-12-27T03:16:03.362Z,1023.91
2022-12-27T03:16:33.970Z,1023.91
2022-12-27T03:17:05.140Z,1023.91
2022-12-27T03:17:35.789Z,1023.81
2022-12-27T03:18:07.230Z,1023.81
2022-12-27T03:18:37.573Z,1024.01
2022-12-27T03:19:11.399Z,1024.01
2022-12-27T03:19:42.948Z,1023.81
2022-12-27T03:20:12.589Z,1023.81
2022-12-27T03:20:42.443Z,1023.91
2022-12-27T03:21:13.236Z,1023.91
2022-12-27T03:21:44.077Z,1024.01
2022-12-27T03:22:14.919Z,1024.01
2022-12-27T03:22:46.162Z,1023.91
2022-12-27T03:23:16.887Z,1024.01
2022-12-27T03:23:47.613Z,1024.01
2022-12-27T03:24:23.296Z,1023.91
2022-12-27T03:24:52.837Z,1023.91
2022-12-27T03:25:23.434Z,1023.91
2022-12-27T03:25:52.509Z,1023.91
2022-12-27T03:26:23.000Z,1023.81
2022-12-27T03:26:54.239Z,1023.81
2022-12-27T03:27:25.128Z,1024.01
2022-12-27T03:27:55.549Z,1024.01
2022-12-27T03:28:26.785Z,1024.01
2022-12-27T03:28:58.461Z,1024.01
2022-12-27T03:29:30.338Z,1023.91
2022-12-27T03:30:02.420Z,1023.91
2022-12-27T03:30:32.349Z,1024.11
2022-12-27T03:31:05.885Z,1024.11
2022-12-27T03:31:35.957Z,1024.11
2022-12-27T03:32:04.525Z,1024.11
2022-12-27T03:32:35.164Z,1024.11
2022-12-27T03:33:06.164Z,1024.11
2022-12-27T03:33:44.982Z,1023.81
2022-12-27T03:34:08.066Z,1023.81
2022-12-27T03:34:41.443Z,1024.21
2022-12-27T03:35:12.287Z,1024.21
2022-12-27T03:35:42.158Z,1024.01
2022-12-27T03:36:12.020Z,1024.01
2022-12-27T03:38:30.812Z,1024.11
2022-12-27T03:38:46.653Z,1024.31
2022-12-27T03:39:18.048Z,1024.11
2022-12-27T03:39:48.715Z,1024.11
2022-12-27T03:40:21.320Z,1024.11
2022-12-27T03:40:51.735Z,1024.11
2022-12-27T03:41:22.839Z,1024.21
2022-12-27T03:41:52.882Z,1024.21
2022-12-27T03:42:23.213Z,1024.21
2022-12-27T03:42:54.435Z,1024.21
2022-12-27T03:43:25.422Z,1024.21
2022-12-27T03:43:56.489Z,1024.21
2022-12-27T03:44:27.551Z,1024.21
2022-12-27T03:44:58.859Z,1024.21
2022-12-27T03:45:32.972Z,1024.11
2022-12-27T03:46:02.039Z,1024.11
2022-12-27T03:46:33.030Z,1024.11
2022-12-27T03:47:02.525Z,1024.11
2022-12-27T03:47:34.651Z,1024.11
2022-12-27T03:48:04.762Z,1024.11
2022-12-27T03:48:35.573Z,1024.21
2022-12-27T03:49:06.834Z,1024.21
2022-12-27T03:49:37.249Z,1024.01
2022-12-27T03:50:08.980Z,1024.01
2022-12-27T03:50:42.941Z,1024.11
2022-12-27T03:51:13.220Z,1024.11
2022-12-27T03:51:42.947Z,1023.91
2022-12-27T03:52:13.789Z,1023.91
2022-12-27T03:52:43.741Z,1024.21
2022-12-27T03:53:14.987Z,1024.21
2022-12-27T03:53:45.825Z,1024.11
2022-12-27T03:54:16.527Z,1024.11
2022-12-27T03:54:47.434Z,1024.11
2022-12-27T03:55:18.683Z,1024.21
2022-12-27T03:55:51.182Z,1024.21
2022-12-27T03:56:22.896Z,1024.21
2022-12-27T03:56:52.743Z,1024.21
2022-12-27T03:57:23.629Z,1024.11
2022-12-27T03:57:53.641Z,1024.11
2022-12-27T03:58:24.511Z,1024.21
2022-12-27T03:58:55.353Z,1024.21
2022-12-27T03:59:26.748Z,1024.11
2022-12-27T03:59:57.631Z,1024.11
2022-12-27T04:00:33.026Z,1024.11
2022-12-27T04:01:00.569Z,1024.11
2022-12-27T04:01:32.486Z,1024.11
2022-12-27T04:02:03.808Z,1024.11
2022-12-27T04:02:33.833Z,1024.21
2022-12-27T04:03:04.141Z,1024.21
2022-12-27T04:03:35.786Z,1024.31
2022-12-27T04:04:05.843Z,1024.31
2022-12-27T04:04:36.571Z,1024.01
2022-12-27T04:05:07.256Z,1024.01
2022-12-27T04:05:38.991Z,1024.11
2022-12-27T04:06:10.536Z,1024.11
2022-12-27T04:06:43.581Z,1024.21
2022-12-27T04:07:13.707Z,1024.21
2022-12-27T04:07:43.620Z,1024.01
2022-12-27T04:08:13.975Z,1024.01
2022-12-27T04:08:44.368Z,1024.21
2022-12-27T04:09:16.034Z,1024.01
2022-12-27T04:09:47.217Z,1024.01
2022-12-27T04:10:35.029Z,1024.01
2022-12-27T04:10:48.715Z,1024.01
2022-12-27T04:11:20.006Z,1024.11
2022-12-27T04:11:52.085Z,1024.11
2022-12-27T04:12:23.957Z,1024.31
2022-12-27T04:12:53.312Z,1024.31
2022-12-27T04:13:24.041Z,1024.11
2022-12-27T04:13:54.746Z,1024.11
2022-12-27T04:14:25.934Z,1024.11
2022-12-27T04:14:56.575Z,1024.11
2022-12-27T04:15:28.221Z,1024.01
2022-12-27T04:15:58.888Z,1024.01
2022-12-27T04:16:46.801Z,1024.11
2022-12-27T04:17:02.911Z,1024.11
2022-12-27T04:17:34.160Z,1024.31
2022-12-27T04:18:04.782Z,1024.31
2022-12-27T04:18:33.954Z,1024.11
2022-12-27T04:19:05.716Z,1024.11
2022-12-27T04:19:36.291Z,1024.31
2022-12-27T04:20:07.470Z,1024.31
2022-12-27T04:20:38.027Z,1024.11
2022-12-27T04:21:08.775Z,1024.11
2022-12-27T04:21:39.878Z,1024.21
2022-12-27T04:22:13.110Z,1024.21
2022-12-27T04:22:43.946Z,1024.41
2022-12-27T04:23:13.972Z,1024.41
2022-12-27T04:23:44.020Z,1024.11
2022-12-27T04:24:14.870Z,1024.11
2022-12-27T04:24:45.792Z,1024.01
2022-12-27T04:25:16.909Z,1024.11
2022-12-27T04:25:47.527Z,1024.11
2022-12-27T04:26:18.735Z,1024.11
2022-12-27T04:26:49.943Z,1024.11
2022-12-27T04:27:22.624Z,1024.21
2022-12-27T04:27:54.229Z,1024.21
2022-12-27T04:28:23.068Z,1024.21
2022-12-27T04:28:54.345Z,1024.21
2022-12-27T04:29:24.394Z,1024.11
2022-12-27T04:29:55.588Z,1024.11
2022-12-27T04:30:27.808Z,1024.21
2022-12-27T04:30:58.323Z,1024.21
2022-12-27T04:31:29.447Z,1024.01
2022-12-27T04:31:59.912Z,1024.01
2022-12-27T04:32:32.277Z,1024.11
2022-12-27T04:33:04.219Z,1024.11
2022-12-27T04:33:34.174Z,1024.21
2022-12-27T04:34:04.082Z,1024.21
2022-12-27T04:34:34.414Z,1024.11
2022-12-27T04:35:05.733Z,1024.11
2022-12-27T04:35:37.018Z,1024.01
2022-12-27T04:36:07.731Z,1024.01
2022-12-27T04:36:38.956Z,1024.01
2022-12-27T04:37:09.837Z,1024.01
2022-12-27T04:37:40.723Z,1023.81
2022-12-27T04:38:13.621Z,1023.81
2022-12-27T04:38:43.686Z,1024.01
2022-12-27T04:39:13.770Z,1024.01
2022-12-27T04:39:45.092Z,1023.81
2022-12-27T04:40:16.191Z,1024.01
2022-12-27T04:40:46.703Z,1024.01
2022-12-27T04:41:17.654Z,1024.11
2022-12-27T04:41:48.878Z,1024.11
2022-12-27T04:42:20.147Z,1023.91
2022-12-27T04:42:52.064Z,1023.91
2022-12-27T04:43:23.930Z,1023.91
2022-12-27T04:43:54.093Z,1023.91
2022-12-27T04:44:24.342Z,1023.91
2022-12-27T04:44:54.792Z,1023.91
2022-12-27T04:45:25.701Z,1024.01
2022-12-27T04:45:56.930Z,1024.01
2022-12-27T04:46:27.699Z,1024.01
2022-12-27T04:46:58.300Z,1024.01
2022-12-27T04:47:30.339Z,1024.01
2022-12-27T04:48:01.278Z,1024.01
2022-12-27T04:48:33.866Z,1024.11
2022-12-27T04:49:04.530Z,1024.11
2022-12-27T04:49:34.616Z,1023.91
2022-12-27T04:50:05.970Z,1023.91
2022-12-27T04:50:36.238Z,1024.01
2022-12-27T04:51:06.594Z,1024.01
2022-12-27T04:51:37.787Z,1024.11
2022-12-27T04:52:08.940Z,1024.11
2022-12-27T04:52:40.040Z,1023.91
2022-12-27T04:53:12.892Z,1023.91
2022-12-27T04:53:44.240Z,1024.21
2022-12-27T04:54:13.989Z,1024.21
2022-12-27T04:54:44.447Z,1024.01
2022-12-27T04:55:15.497Z,1024.01
2022-12-27T04:55:46.119Z,1024.01
2022-12-27T04:56:16.986Z,1024.21
2022-12-27T04:56:47.739Z,1024.21
2022-12-27T04:57:18.565Z,1024.11
2022-12-27T04:57:50.020Z,1024.11
2022-12-27T04:58:20.517Z,1024.21
2022-12-27T04:58:54.031Z,1024.21
2022-12-27T04:59:24.197Z,1024.21
2022-12-27T04:59:54.634Z,1024.21
2022-12-27T05:00:25.463Z,1024.21
2022-12-27T05:00:58.100Z,1024.21
2022-12-27T05:01:26.679Z,1024.31
2022-12-27T05:01:59.822Z,1024.31
2022-12-27T05:02:30.338Z,1024.31
2022-12-27T05:03:01.755Z,1024.31
2022-12-27T05:03:32.519Z,1024.21
2022-12-27T05:04:02.951Z,1024.21
2022-12-27T05:04:32.975Z,1024.41
2022-12-27T05:05:03.994Z,1024.41
2022-12-27T05:05:34.694Z,1024.31
2022-12-27T05:06:05.942Z,1024.31
2022-12-27T05:06:36.789Z,1024.21
2022-12-27T05:07:11.206Z,1024.21
2022-12-27T05:07:40.553Z,1024.21
2022-12-27T05:08:10.507Z,1024.21
2022-12-27T05:08:41.779Z,1024.11
2022-12-27T05:09:11.785Z,1024.11
2022-12-27T05:09:42.523Z,1024.11
2022-12-27T05:10:14.001Z,1024.11
2022-12-27T05:10:44.702Z,1024.31
2022-12-27T05:11:15.653Z,1024.11
2022-12-27T05:11:46.554Z,1024.11
2022-12-27T05:12:17.752Z,1024.31
2022-12-27T05:12:50.244Z,1024.31
2022-12-27T05:13:20.568Z,1024.31
2022-12-27T05:13:50.788Z,1024.31
2022-12-27T05:14:21.483Z,1024.21
2022-12-27T05:14:52.614Z,1024.21
2022-12-27T05:15:23.807Z,1024.21
2022-12-27T05:15:54.709Z,1024.21
2022-12-27T05:16:25.615Z,1024.31
2022-12-27T05:16:56.598Z,1024.31
2022-12-27T05:17:29.995Z,1024.31
2022-12-27T05:18:00.191Z,1024.31
2022-12-27T05:18:29.670Z,1024.31
2022-12-27T05:19:00.847Z,1024.31
2022-12-27T05:19:31.417Z,1024.21
2022-12-27T05:20:02.909Z,1024.21
2022-12-27T05:20:52.360Z,1024.31
2022-12-27T05:21:06.133Z,1024.31
2022-12-27T05:21:35.564Z,1024.31
2022-12-27T05:22:09.449Z,1024.31
2022-12-27T05:22:39.681Z,1024.48
2022-12-27T05:23:11.333Z,1024.48
2022-12-27T05:23:44.328Z,1024.31
2022-12-27T05:24:11.263Z,1024.31
2022-12-27T05:24:42.085Z,1024.11
2022-12-27T05:25:13.366Z,1024.11
2022-12-27T05:25:44.113Z,1024.48
2022-12-27T05:26:15.030Z,1024.48
2022-12-27T05:26:46.104Z,1024.21
2022-12-27T05:27:16.638Z,1024.31
2022-12-27T05:27:50.209Z,1024.31
2022-12-27T05:28:20.759Z,1024.31
2022-12-27T05:28:50.051Z,1024.31
2022-12-27T05:29:21.769Z,1024.31
2022-12-27T05:29:52.066Z,1024.31
2022-12-27T05:30:24.637Z,1024.31
2022-12-27T05:30:54.441Z,1024.31
2022-12-27T05:31:24.957Z,1024.21
2022-12-27T05:31:56.027Z,1024.21
2022-12-27T05:32:27.060Z,1024.01
2022-12-27T05:32:57.850Z,1024.01
2022-12-27T05:33:30.501Z,1024.41
2022-12-27T05:34:01.373Z,1024.41
2022-12-27T05:34:32.512Z,1024.21
2022-12-27T05:35:03.862Z,1024.21
2022-12-27T05:35:34.410Z,1024.31
2022-12-27T05:36:04.498Z,1024.31
2022-12-27T05:36:35.175Z,1024.21
2022-12-27T05:37:06.126Z,1024.21
2022-12-27T05:37:36.801Z,1024.31
2022-12-27T05:38:08.496Z,1024.31
2022-12-27T05:38:40.665Z,1024.11
2022-12-27T05:39:12.133Z,1024.11
2022-12-27T05:39:42.243Z,1024.11
2022-12-27T05:40:13.009Z,1024.11
2022-12-27T05:40:43.052Z,1024.41
2022-12-27T05:41:13.619Z,1024.41
2022-12-27T05:41:45.803Z,1024.41
2022-12-27T05:42:16.264Z,1024.31
2022-12-27T05:42:47.410Z,1024.31
2022-12-27T05:43:17.940Z,1024.21
2022-12-27T05:43:51.446Z,1024.21
2022-12-27T05:44:22.061Z,1024.31
2022-12-27T05:44:52.854Z,1024.31
2022-12-27T05:45:24.193Z,1024.11
2022-12-27T05:45:54.172Z,1024.11
2022-12-27T05:46:24.102Z,1024.21
2022-12-27T05:46:55.125Z,1024.21
2022-12-27T05:47:25.828Z,1024.31
2022-12-27T05:47:58.421Z,1024.31
2022-12-27T05:48:28.276Z,1024.31
2022-12-27T05:48:58.676Z,1024.31
2022-12-27T05:49:32.531Z,1024.31
2022-12-27T05:50:02.831Z,1024.31
2022-12-27T05:50:34.857Z,1024.21
2022-12-27T05:51:03.991Z,1024.21
2022-12-27T05:51:34.068Z,1024.31
2022-12-27T05:52:05.353Z,1024.31
2022-12-27T05:52:40.979Z,1024.41
2022-12-27T05:53:07.489Z,1024.41
2022-12-27T05:53:38.456Z,1024.21
2022-12-27T05:54:10.680Z,1024.21
2022-12-27T05:54:42.459Z,1024.31
2022-12-27T05:55:13.845Z,1024.31
2022-12-27T05:55:43.952Z,1024.21
2022-12-27T05:56:13.254Z,1024.21
2022-12-27T05:56:59.701Z,1024.31
2022-12-27T05:57:15.000Z,1024.31
2022-12-27T05:57:46.391Z,1024.31
2022-12-27T05:58:17.001Z,1024.48
2022-12-27T05:58:49.314Z,1024.48
2022-12-27T05:59:20.560Z,1024.21
2022-12-27T05:59:50.780Z,1024.21
2022-12-27T06:00:22.604Z,1024.41
2022-12-27T06:01:10.209Z,1024.41
2022-12-27T06:01:22.920Z,1024.48
2022-12-27T06:01:54.394Z,1024.48
2022-12-27T06:02:25.253Z,1024.31
2022-12-27T06:02:55.576Z,1024.31
2022-12-27T06:03:28.218Z,1024.41
2022-12-27T06:03:59.781Z,1024.41
2022-12-27T06:04:30.560Z,1024.41
2022-12-27T06:05:00.682Z,1024.41
2022-12-27T06:05:31.546Z,1024.31
2022-12-27T06:06:01.896Z,1024.31
2022-12-27T06:06:32.976Z,1024.48
2022-12-27T06:07:03.892Z,1024.48
2022-12-27T06:07:35.917Z,1024.31
2022-12-27T06:08:37.285Z,1024.31
2022-12-27T06:09:09.957Z,1024.31
2022-12-27T06:09:40.440Z,1024.31
2022-12-27T06:10:28.273Z,1024.11
2022-12-27T06:10:41.707Z,1024.11
2022-12-27T06:11:12.161Z,1024.11
2022-12-27T06:11:43.234Z,1024.41
2022-12-27T06:12:19.347Z,1024.41
2022-12-27T06:12:53.972Z,1024.21
2022-12-27T06:13:16.245Z,1024.31
2022-12-27T06:13:52.706Z,1024.31
2022-12-27T06:14:19.712Z,1024.41
2022-12-27T06:14:49.996Z,1024.41
2022-12-27T06:15:22.260Z,1024.41
2022-12-27T06:15:51.303Z,1024.41
2022-12-27T06:16:22.614Z,1024.41
2022-12-27T06:16:53.151Z,1024.41
2022-12-27T06:17:23.814Z,1024.41
2022-12-27T06:17:55.130Z,1024.41
2022-12-27T06:18:25.912Z,1024.31
2022-12-27T06:18:56.983Z,1024.31
2022-12-27T06:19:30.055Z,1024.41
2022-12-27T06:20:00.531Z,1024.41
2022-12-27T06:20:31.493Z,1024.21
2022-12-27T06:21:01.393Z,1024.21
2022-12-27T06:21:32.038Z,1024.41
2022-12-27T06:22:02.953Z,1024.41
2022-12-27T06:22:34.105Z,1024.31
2022-12-27T06:23:05.004Z,1024.31